Waterford, Mississippi
Current Conditions -  °F | °C
As of 9:15 AM on Thursday 18 Dec 2014 (Local Time) from KUOX Reporting Station
Broken Clouds Broken Clouds  
Wind Chill: 36°   Ceiling: 4900
Heat Index: 39°   Visibility: 9mi
Dew Point: 36°   Wind: 5mph
Humidity: 87%   Direction: 100°E
Pressure: 30.25"   Gusts: NA
Location:  34.65°N, 89.46°W
Report Text: KUOX 181515Z AUTO 10004KT 9SM FEW035 BKN049 04/02 A3025 RMK AO2 PWINO PNO
Loading
Personal Weather Stations






























Interactive Weather Map New forecast layout! Learn more

10-Day Weather Forecast

Advertisements
Track Severe Weather on mobile